• Join FlightAware (Why Join?)
  • Login
  • US Flag 
03:14AM EST


 

Airport Tracker/Info


-or-


 

Live Flight TrackerFlight Track Log ✈ CTL14 ✈ 18-Apr-2013 ✈ KOSU - KBAK

Flight Track Log - Related Links

Times and Time Zones

All times are in EDT time to prevent confusion due to time zone crossing. See the CTL14 flight status page for this flight to view local times or setup timezone preferences in your user account.

Time Position Orientation Groundspeed Altitude Reporting Facility
EDT Latitude Longitude Course Direction KTS MPH feet Rate Location/Type
02:45AM 40.0642 -83.1433 248° West 102 117 2,800  Level Indianapolis Center
02:46AM 40.0533 -83.1775 248° West 105 121 3,600 780 Climbing Indianapolis Center
02:47AM 40.0442 -83.2172 253° West 110 127 4,400 780 Climbing Indianapolis Center
02:48AM 40.0311 -83.2567 247° West 108 124 5,200 660 Climbing Indianapolis Center
02:49AM 40.0222 -83.2936 253° West 111 128 5,800 420 Climbing Indianapolis Center
02:50AM 40.0108 -83.3331 249° West 116 133 6,100 120 Climbing Indianapolis Center
02:51AM 39.9972 -83.3778 248° West 137 158 6,100  Level Indianapolis Center
02:52AM 39.9856 -83.4253 252° West 141 162 6,200  Climbing Indianapolis Center
02:53AM 39.9717 -83.4725 249° West 140 161 6,200  Level Indianapolis Center
02:54AM 39.9575 -83.5225 250° West 140 161 6,200 -60 Level Indianapolis Center
02:55AM 39.9433 -83.5725 250° West 142 163 6,100 -60 Descending Indianapolis Center
02:56AM 39.9314 -83.6200 252° West 141 162 6,100 -60 Level Indianapolis Center
02:57AM 39.9192 -83.6689 252° West 141 162 6,000 -60 Descending Indianapolis Center
02:58AM 39.9056 -83.7175 250° West 140 161 6,000  Level Indianapolis Center
02:59AM 39.8933 -83.7675 252° West 143 165 6,000  Level Indianapolis Center
03:00AM 39.8814 -83.8150 252° West 143 165 6,000  Level Indianapolis Center
03:01AM 39.8692 -83.8564 249° West 143 165 6,000  Level Indianapolis Center
03:02AM 39.8558 -83.9053 250° West 142 163 6,000  Level Indianapolis Center
03:03AM 39.8414 -83.9519 248° West 141 162 6,000  Level Indianapolis Center
03:04AM 39.8258 -83.9994 247° West 140 161 6,000  Level Indianapolis Center
03:05AM 39.8117 -84.0461 248° West 140 161 6,000  Level Indianapolis Center
03:06AM 39.7950 -84.0908 244° Southwest 137 158 6,100  Climbing Indianapolis Center
03:07AM 39.7819 -84.1397 251° West 139 160 6,100 -60 Level Indianapolis Center
03:08AM 39.7697 -84.1900 252° West 143 165 6,000 -60 Descending Indianapolis Center
03:09AM 39.7561 -84.2375 250° West 142 163 6,000  Level Indianapolis Center
03:10AM 39.7422 -84.2864 250° West 141 162 6,000  Level Indianapolis Center
03:11AM 39.7286 -84.3328 249° West 139 160 6,100  Climbing Indianapolis Center
03:12AM 39.7153 -84.3786 249° West 137 158 6,000 -60 Descending Indianapolis Center
03:13AM 39.7022 -84.4247 250° West 135 155 6,000  Level Indianapolis Center
03:14AM 39.6881 -84.4736 249° West 140 161 6,000  Level Indianapolis Center
03:15AM 39.6753 -84.5197 250° West 137 158 6,000  Level Indianapolis Center
03:16AM 39.6608 -84.5650 248° West 136 157 6,000  Level Indianapolis Center
03:17AM 39.6472 -84.6133 250° West 139 160 6,000  Level Indianapolis Center
03:18AM 39.6336 -84.6597 249° West 138 159 6,000  Level Indianapolis Center
03:19AM 39.6206 -84.7061 250° West 136 157 6,000  Level Indianapolis Center
03:20AM 39.6058 -84.7536 248° West 139 160 6,000  Level Indianapolis Center
03:21AM 39.5925 -84.7992 249° West 136 157 6,000  Level Indianapolis Center
03:22AM 39.5811 -84.8450 252° West 135 155 6,000  Level Indianapolis Center
03:23AM 39.5672 -84.8906 248° West 134 154 6,100  Climbing Indianapolis Center
03:24AM 39.5553 -84.9367 251° West 134 154 6,100  Level Indianapolis Center
03:25AM 39.5422 -84.9739 246° West 134 154 6,100  Level Indianapolis Center
03:26AM 39.5297 -85.0200 251° West 134 154 6,100 -300 Level Indianapolis Center
03:27AM 39.5147 -85.0672 248° West 137 158 5,500 -540 Descending Indianapolis Center
03:28AM 39.4975 -85.1172 246° West 145 167 5,100 -300 Descending Indianapolis Center
03:29AM 39.4819 -85.1714 250° West 145 167 4,900 -360 Descending Indianapolis Center
03:31AM 39.4500 -85.2667 247° West 132 152 4,100 -300 Descending Indianapolis TRACON
03:32AM 39.4333 -85.3167 247° West 128 147 4,100  Level Indianapolis TRACON
03:33AM 39.4167 -85.3500 237° Southwest 128 147 4,100 -60 Level Indianapolis TRACON
03:34AM 39.4167 -85.4000 270° West 128 147 4,000  Descending Indianapolis TRACON
03:35AM 39.4000 -85.4333 237° Southwest 128 147 4,100  Climbing Indianapolis TRACON
03:36AM 39.3833 -85.4833 247° West 128 147 4,000 -120 Descending Indianapolis TRACON